Terminal Aerodrome Forecast
Issued by NWS

Home | Current Version | Previous Version | Text Only | Print | Product List | Glossary On
Versions: 1 2 3 4 5 6 7 8 9 10 11 12 13 14 15
185
FTUS45 KRIW 192320
TAFBPI
TAF
KBPI 192320Z 2000/2024 34008G20KT P6SM SCT080 BKN140
     FM200100 VRB06KT P6SM BKN120
     FM201800 22013G20KT P6SM VCTS SCT060CB BKN100=

USA.gov is the U.S. government's official web portal to all federal, state and local government web resources and services.